CheckWX is a tool to help pilots better visualize weather data.  It is not intended as a substitute for an official pre-flight weather briefing.

06:19:34 UTC

KSJC TAF
Norman Y Mineta San Jose International Airport
San Jose, California, USA
KSJC 011121Z 0112/0212 VRB04KT P6SM SCT020 BKN120 TEMPO 0112/0116 BKN015 BKN120 FM011800 31007KT P6SM FEW020 SCT150 FM012300 31014KT P6SM FEW060 SCT150 FM020400 31006KT P6SM FEW200 FM020700 VRB03KT P6SM FEW200

Jun-1@
12:00 UTC

Jun-1 @ 12:00 UTC

Jun-1@
18:00 UTC

Jun-1 @ 18:00 UTC

TAF KSJC 011121Z 0112/0212 VRB04KT P6SM SCT020 BKN120

Expired

Wind
  • Variable at 4 KTS
Cloud Levels
  • Scattered at 2,000' AGL
  • Broken at 12,000' AGL

Jun-1@
12:00 UTC

Jun-1 @ 12:00 UTC

Jun-1@
16:00 UTC

Jun-1 @ 16:00 UTC

TEMPO 0112/0116 BKN015 BKN120

Expired

Cloud Levels
  • Broken at 1,500' AGL
  • Broken at 12,000' AGL

Jun-1@
18:00 UTC

Jun-1 @ 18:00 UTC

Jun-1@
23:00 UTC

Jun-1 @ 23:00 UTC

FM011800 31007KT P6SM FEW020 SCT150

Expired

Wind
  • 310° at 7 KTS
Cloud Levels
  • Few at 2,000' AGL
  • Scattered at 15,000' AGL

Jun-1@
23:00 UTC

Jun-1 @ 23:00 UTC

Jun-2@
04:00 UTC

Jun-2 @ 04:00 UTC

FM012300 31014KT P6SM FEW060 SCT150

Expired

Wind
  • 310° at 14 KTS
Cloud Levels
  • Few at 6,000' AGL
  • Scattered at 15,000' AGL

Jun-2@
04:00 UTC

Jun-2 @ 04:00 UTC

Jun-2@
07:00 UTC

Jun-2 @ 07:00 UTC

FM020400 31006KT P6SM FEW200

From

From Standard forecast or significant change

Wind
  • 310° at 6 KTS
Cloud Levels
  • Few at 20,000' AGL

Jun-2@
07:00 UTC

Jun-2 @ 07:00 UTC

Jun-2@
12:00 UTC

Jun-2 @ 12:00 UTC

FM020700 VRB03KT P6SM FEW200

From

From Standard forecast or significant change

Wind
  • Variable at 3 KTS
Cloud Levels
  • Few at 20,000' AGL